sensor_id;sensor_type;location;lat;lon;timestamp;P1;durP1;ratioP1;P2;durP2;ratioP2
21281;SDS011;10800;53.096;18.328;2023-05-10T00:03:59;3.67;;;1.70;;
21281;SDS011;10800;53.096;18.328;2023-05-10T00:09:05;5.70;;;2.13;;
21281;SDS011;10800;53.096;18.328;2023-05-10T00:14:10;3.30;;;2.03;;
21281;SDS011;10800;53.096;18.328;2023-05-10T00:19:16;6.27;;;2.40;;
21281;SDS011;10800;53.096;18.328;2023-05-10T00:24:22;3.17;;;1.90;;
21281;SDS011;10800;53.096;18.328;2023-05-10T00:29:27;3.93;;;2.07;;
21281;SDS011;10800;53.096;18.328;2023-05-10T00:34:32;3.07;;;2.10;;
21281;SDS011;10800;53.096;18.328;2023-05-10T00:39:37;5.37;;;2.00;;
21281;SDS011;10800;53.096;18.328;2023-05-10T00:44:43;5.07;;;2.13;;
21281;SDS011;10800;53.096;18.328;2023-05-10T00:49:48;3.97;;;1.80;;
21281;SDS011;10800;53.096;18.328;2023-05-10T00:54:54;2.40;;;1.73;;
21281;SDS011;10800;53.096;18.328;2023-05-10T00:59:59;3.83;;;2.10;;
21281;SDS011;10800;53.096;18.328;2023-05-10T01:05:06;2.07;;;1.80;;
21281;SDS011;10800;53.096;18.328;2023-05-10T01:10:12;4.07;;;1.67;;
21281;SDS011;10800;53.096;18.328;2023-05-10T01:15:19;1.37;;;1.27;;
21281;SDS011;10800;53.096;18.328;2023-05-10T01:20:25;1.93;;;1.70;;
21281;SDS011;10800;53.096;18.328;2023-05-10T01:25:58;2.83;;;1.83;;
21281;SDS011;10800;53.096;18.328;2023-05-10T01:31:08;2.63;;;1.60;;
21281;SDS011;10800;53.096;18.328;2023-05-10T01:36:26;5.20;;;2.00;;
21281;SDS011;10800;53.096;18.328;2023-05-10T01:41:36;4.57;;;1.63;;
21281;SDS011;10800;53.096;18.328;2023-05-10T01:46:48;5.67;;;2.37;;
21281;SDS011;10800;53.096;18.328;2023-05-10T01:51:57;1.80;;;1.30;;
21281;SDS011;10800;53.096;18.328;2023-05-10T01:57:04;3.00;;;1.90;;
21281;SDS011;10800;53.096;18.328;2023-05-10T02:02:12;3.40;;;1.87;;
21281;SDS011;10800;53.096;18.328;2023-05-10T02:07:22;2.10;;;1.67;;
21281;SDS011;10800;53.096;18.328;2023-05-10T02:12:27;3.00;;;1.80;;
21281;SDS011;10800;53.096;18.328;2023-05-10T02:17:35;3.17;;;1.90;;
21281;SDS011;10800;53.096;18.328;2023-05-10T02:22:44;2.57;;;1.23;;
21281;SDS011;10800;53.096;18.328;2023-05-10T02:27:52;9.33;;;2.43;;
21281;SDS011;10800;53.096;18.328;2023-05-10T02:32:59;5.97;;;1.77;;
21281;SDS011;10800;53.096;18.328;2023-05-10T02:38:06;2.10;;;1.73;;
21281;SDS011;10800;53.096;18.328;2023-05-10T02:48:25;3.37;;;1.47;;
21281;SDS011;10800;53.096;18.328;2023-05-10T02:53:31;6.33;;;2.10;;
21281;SDS011;10800;53.096;18.328;2023-05-10T02:58:42;3.30;;;1.83;;
21281;SDS011;10800;53.096;18.328;2023-05-10T03:03:47;2.83;;;1.70;;
21281;SDS011;10800;53.096;18.328;2023-05-10T03:08:52;3.33;;;1.80;;
21281;SDS011;10800;53.096;18.328;2023-05-10T03:14:08;2.40;;;1.67;;
21281;SDS011;10800;53.096;18.328;2023-05-10T03:19:16;10.70;;;2.20;;
21281;SDS011;10800;53.096;18.328;2023-05-10T03:24:23;4.17;;;1.47;;
21281;SDS011;10800;53.096;18.328;2023-05-10T03:29:31;7.17;;;2.50;;
21281;SDS011;10800;53.096;18.328;2023-05-10T03:34:40;2.83;;;1.80;;
21281;SDS011;10800;53.096;18.328;2023-05-10T03:39:46;3.37;;;1.73;;
21281;SDS011;10800;53.096;18.328;2023-05-10T03:44:52;1.40;;;1.30;;
21281;SDS011;10800;53.096;18.328;2023-05-10T03:49:57;3.83;;;1.90;;
21281;SDS011;10800;53.096;18.328;2023-05-10T03:55:03;3.77;;;1.93;;
21281;SDS011;10800;53.096;18.328;2023-05-10T04:00:08;2.43;;;1.73;;
21281;SDS011;10800;53.096;18.328;2023-05-10T04:05:15;8.30;;;2.00;;
21281;SDS011;10800;53.096;18.328;2023-05-10T04:10:22;1.50;;;1.40;;
21281;SDS011;10800;53.096;18.328;2023-05-10T04:15:27;1.97;;;1.67;;
21281;SDS011;10800;53.096;18.328;2023-05-10T04:20:32;4.30;;;2.20;;
21281;SDS011;10800;53.096;18.328;2023-05-10T04:25:38;10.97;;;2.17;;
21281;SDS011;10800;53.096;18.328;2023-05-10T04:30:43;4.23;;;1.73;;
21281;SDS011;10800;53.096;18.328;2023-05-10T04:35:49;3.00;;;2.27;;
21281;SDS011;10800;53.096;18.328;2023-05-10T04:40:54;6.07;;;1.83;;
21281;SDS011;10800;53.096;18.328;2023-05-10T04:46:01;3.13;;;1.53;;
21281;SDS011;10800;53.096;18.328;2023-05-10T04:51:14;5.57;;;1.37;;
21281;SDS011;10800;53.096;18.328;2023-05-10T04:56:20;5.30;;;3.00;;
21281;SDS011;10800;53.096;18.328;2023-05-10T05:01:25;2.70;;;1.70;;
21281;SDS011;10800;53.096;18.328;2023-05-10T05:06:31;16.70;;;2.13;;
21281;SDS011;10800;53.096;18.328;2023-05-10T05:11:36;10.73;;;2.37;;
21281;SDS011;10800;53.096;18.328;2023-05-10T05:16:43;5.53;;;2.50;;
21281;SDS011;10800;53.096;18.328;2023-05-10T05:21:49;4.60;;;2.17;;
21281;SDS011;10800;53.096;18.328;2023-05-10T05:26:54;3.47;;;1.83;;
21281;SDS011;10800;53.096;18.328;2023-05-10T05:32:00;14.10;;;2.13;;
21281;SDS011;10800;53.096;18.328;2023-05-10T05:37:05;2.30;;;1.70;;
21281;SDS011;10800;53.096;18.328;2023-05-10T05:42:11;12.30;;;2.50;;
21281;SDS011;10800;53.096;18.328;2023-05-10T05:47:18;4.20;;;1.80;;
21281;SDS011;10800;53.096;18.328;2023-05-10T05:52:41;4.03;;;1.77;;
21281;SDS011;10800;53.096;18.328;2023-05-10T05:57:46;3.83;;;1.97;;
21281;SDS011;10800;53.096;18.328;2023-05-10T06:08:08;4.33;;;2.00;;
21281;SDS011;10800;53.096;18.328;2023-05-10T06:13:17;2.03;;;1.57;;
21281;SDS011;10800;53.096;18.328;2023-05-10T06:18:23;4.33;;;1.87;;
21281;SDS011;10800;53.096;18.328;2023-05-10T06:23:32;2.43;;;1.30;;
21281;SDS011;10800;53.096;18.328;2023-05-10T06:28:37;5.23;;;1.67;;
21281;SDS011;10800;53.096;18.328;2023-05-10T06:33:43;4.60;;;1.90;;
21281;SDS011;10800;53.096;18.328;2023-05-10T06:38:48;5.07;;;1.47;;
21281;SDS011;10800;53.096;18.328;2023-05-10T06:44:00;5.67;;;1.50;;
21281;SDS011;10800;53.096;18.328;2023-05-10T06:49:06;4.37;;;1.50;;
21281;SDS011;10800;53.096;18.328;2023-05-10T06:54:12;3.50;;;1.53;;
21281;SDS011;10800;53.096;18.328;2023-05-10T06:59:19;1.40;;;1.30;;
21281;SDS011;10800;53.096;18.328;2023-05-10T07:04:25;1.60;;;1.10;;
21281;SDS011;10800;53.096;18.328;2023-05-10T07:09:31;4.40;;;1.90;;
21281;SDS011;10800;53.096;18.328;2023-05-10T07:14:37;3.10;;;1.70;;
21281;SDS011;10800;53.096;18.328;2023-05-10T07:19:43;5.77;;;1.60;;
21281;SDS011;10800;53.096;18.328;2023-05-10T07:24:48;2.90;;;1.47;;
21281;SDS011;10800;53.096;18.328;2023-05-10T07:29:53;2.37;;;1.43;;
21281;SDS011;10800;53.096;18.328;2023-05-10T07:35:00;4.70;;;1.30;;
21281;SDS011;10800;53.096;18.328;2023-05-10T07:40:06;1.43;;;1.17;;
21281;SDS011;10800;53.096;18.328;2023-05-10T07:45:12;6.30;;;2.20;;
21281;SDS011;10800;53.096;18.328;2023-05-10T07:50:18;2.50;;;1.20;;
21281;SDS011;10800;53.096;18.328;2023-05-10T07:55:24;2.27;;;1.50;;
21281;SDS011;10800;53.096;18.328;2023-05-10T08:00:31;3.73;;;1.43;;
21281;SDS011;10800;53.096;18.328;2023-05-10T08:05:38;4.73;;;1.00;;
21281;SDS011;10800;53.096;18.328;2023-05-10T08:10:45;1.90;;;1.50;;
21281;SDS011;10800;53.096;18.328;2023-05-10T08:15:51;2.80;;;1.80;;
21281;SDS011;10800;53.096;18.328;2023-05-10T08:20:57;2.37;;;1.23;;
21281;SDS011;10800;53.096;18.328;2023-05-10T08:26:02;3.13;;;1.20;;
21281;SDS011;10800;53.096;18.328;2023-05-10T08:31:08;1.57;;;0.93;;
21281;SDS011;10800;53.096;18.328;2023-05-10T08:36:14;2.97;;;1.40;;
21281;SDS011;10800;53.096;18.328;2023-05-10T08:41:21;0.90;;;0.80;;
21281;SDS011;10800;53.096;18.328;2023-05-10T08:46:30;7.93;;;2.33;;
21281;SDS011;10800;53.096;18.328;2023-05-10T08:51:40;4.00;;;1.80;;
21281;SDS011;10800;53.096;18.328;2023-05-10T08:56:47;1.47;;;1.13;;
21281;SDS011;10800;53.096;18.328;2023-05-10T09:01:53;1.60;;;1.00;;
21281;SDS011;10800;53.096;18.328;2023-05-10T09:07:00;8.00;;;1.63;;
21281;SDS011;10800;53.096;18.328;2023-05-10T09:12:05;5.13;;;1.43;;
21281;SDS011;10800;53.096;18.328;2023-05-10T09:17:14;1.47;;;1.10;;
21281;SDS011;10800;53.096;18.328;2023-05-10T09:22:19;5.67;;;1.13;;
21281;SDS011;10800;53.096;18.328;2023-05-10T09:27:28;0.50;;;0.50;;
21281;SDS011;10800;53.096;18.328;2023-05-10T09:32:44;2.47;;;0.87;;
21281;SDS011;10800;53.096;18.328;2023-05-10T09:37:47;0.40;;;0.40;;
21281;SDS011;10800;53.096;18.328;2023-05-10T09:43:01;8.03;;;1.20;;
21281;SDS011;10800;53.096;18.328;2023-05-10T09:48:11;2.13;;;1.30;;
21281;SDS011;10800;53.096;18.328;2023-05-10T09:53:16;3.70;;;1.53;;
21281;SDS011;10800;53.096;18.328;2023-05-10T09:58:24;0.80;;;0.80;;
21281;SDS011;10800;53.096;18.328;2023-05-10T10:03:32;2.60;;;1.13;;
21281;SDS011;10800;53.096;18.328;2023-05-10T10:08:38;2.10;;;1.53;;
21281;SDS011;10800;53.096;18.328;2023-05-10T10:13:47;7.07;;;1.33;;
21281;SDS011;10800;53.096;18.328;2023-05-10T10:18:52;3.30;;;1.20;;
21281;SDS011;10800;53.096;18.328;2023-05-10T10:23:58;2.53;;;1.80;;
21281;SDS011;10800;53.096;18.328;2023-05-10T10:34:33;10.07;;;1.67;;
21281;SDS011;10800;53.096;18.328;2023-05-10T10:39:38;4.03;;;0.93;;
21281;SDS011;10800;53.096;18.328;2023-05-10T10:44:43;1.50;;;1.27;;
21281;SDS011;10800;53.096;18.328;2023-05-10T10:50:08;1.27;;;1.10;;
21281;SDS011;10800;53.096;18.328;2023-05-10T10:55:07;3.07;;;1.53;;
21281;SDS011;10800;53.096;18.328;2023-05-10T11:00:19;3.83;;;1.30;;
21281;SDS011;10800;53.096;18.328;2023-05-10T11:10:40;1.12;;;1.00;;
21281;SDS011;10800;53.096;18.328;2023-05-10T11:15:48;2.33;;;1.23;;
21281;SDS011;10800;53.096;18.328;2023-05-10T11:21:00;1.77;;;0.87;;
21281;SDS011;10800;53.096;18.328;2023-05-10T11:26:09;1.10;;;0.80;;
21281;SDS011;10800;53.096;18.328;2023-05-10T11:31:16;1.87;;;1.47;;
21281;SDS011;10800;53.096;18.328;2023-05-10T11:36:29;4.17;;;1.17;;
21281;SDS011;10800;53.096;18.328;2023-05-10T11:41:39;2.57;;;1.53;;
21281;SDS011;10800;53.096;18.328;2023-05-10T11:46:46;3.93;;;1.13;;
21281;SDS011;10800;53.096;18.328;2023-05-10T11:51:51;1.40;;;0.90;;
21281;SDS011;10800;53.096;18.328;2023-05-10T11:56:57;8.57;;;2.07;;
21281;SDS011;10800;53.096;18.328;2023-05-10T12:02:04;4.00;;;0.87;;
21281;SDS011;10800;53.096;18.328;2023-05-10T12:07:09;6.60;;;1.97;;
21281;SDS011;10800;53.096;18.328;2023-05-10T12:12:17;6.00;;;1.87;;
21281;SDS011;10800;53.096;18.328;2023-05-10T12:17:26;1.67;;;1.33;;
21281;SDS011;10800;53.096;18.328;2023-05-10T12:22:33;8.03;;;1.83;;
21281;SDS011;10800;53.096;18.328;2023-05-10T12:27:39;2.17;;;1.50;;
21281;SDS011;10800;53.096;18.328;2023-05-10T12:39:50;6.20;;;1.47;;
21281;SDS011;10800;53.096;18.328;2023-05-10T12:44:55;2.80;;;1.60;;
21281;SDS011;10800;53.096;18.328;2023-05-10T12:50:02;2.00;;;0.87;;
21281;SDS011;10800;53.096;18.328;2023-05-10T12:55:13;2.93;;;1.30;;
21281;SDS011;10800;53.096;18.328;2023-05-10T13:00:19;3.63;;;0.90;;
21281;SDS011;10800;53.096;18.328;2023-05-10T13:05:24;1.47;;;1.30;;
21281;SDS011;10800;53.096;18.328;2023-05-10T13:10:30;3.30;;;1.30;;
21281;SDS011;10800;53.096;18.328;2023-05-10T13:15:36;2.43;;;1.43;;
21281;SDS011;10800;53.096;18.328;2023-05-10T13:20:41;1.63;;;1.10;;
21281;SDS011;10800;53.096;18.328;2023-05-10T13:25:47;1.33;;;1.10;;
21281;SDS011;10800;53.096;18.328;2023-05-10T13:30:53;2.20;;;1.20;;
21281;SDS011;10800;53.096;18.328;2023-05-10T13:35:58;1.60;;;1.33;;
21281;SDS011;10800;53.096;18.328;2023-05-10T13:41:03;2.33;;;1.07;;
21281;SDS011;10800;53.096;18.328;2023-05-10T13:46:09;6.80;;;1.33;;
21281;SDS011;10800;53.096;18.328;2023-05-10T13:51:16;5.47;;;1.33;;
21281;SDS011;10800;53.096;18.328;2023-05-10T13:56:23;5.70;;;1.80;;
21281;SDS011;10800;53.096;18.328;2023-05-10T14:01:28;3.53;;;1.13;;
21281;SDS011;10800;53.096;18.328;2023-05-10T14:06:35;1.77;;;1.30;;
21281;SDS011;10800;53.096;18.328;2023-05-10T14:11:40;5.23;;;1.60;;
21281;SDS011;10800;53.096;18.328;2023-05-10T14:16:47;3.37;;;1.47;;
21281;SDS011;10800;53.096;18.328;2023-05-10T14:21:55;1.27;;;1.00;;
21281;SDS011;10800;53.096;18.328;2023-05-10T14:27:00;2.03;;;1.10;;
21281;SDS011;10800;53.096;18.328;2023-05-10T14:32:05;2.97;;;1.50;;
21281;SDS011;10800;53.096;18.328;2023-05-10T14:37:11;6.67;;;2.17;;
21281;SDS011;10800;53.096;18.328;2023-05-10T14:42:18;6.93;;;2.00;;
21281;SDS011;10800;53.096;18.328;2023-05-10T14:47:26;10.93;;;2.00;;
21281;SDS011;10800;53.096;18.328;2023-05-10T14:52:34;4.57;;;1.63;;
21281;SDS011;10800;53.096;18.328;2023-05-10T14:57:40;1.53;;;1.00;;
21281;SDS011;10800;53.096;18.328;2023-05-10T15:02:46;7.47;;;2.03;;
21281;SDS011;10800;53.096;18.328;2023-05-10T15:07:52;3.90;;;1.60;;
21281;SDS011;10800;53.096;18.328;2023-05-10T15:12:58;1.37;;;1.00;;
21281;SDS011;10800;53.096;18.328;2023-05-10T15:18:05;2.70;;;1.33;;
21281;SDS011;10800;53.096;18.328;2023-05-10T15:23:11;2.77;;;1.73;;
21281;SDS011;10800;53.096;18.328;2023-05-10T15:28:16;3.50;;;1.20;;
21281;SDS011;10800;53.096;18.328;2023-05-10T15:33:25;1.70;;;1.33;;
21281;SDS011;10800;53.096;18.328;2023-05-10T15:38:30;3.20;;;1.63;;
21281;SDS011;10800;53.096;18.328;2023-05-10T15:43:36;2.60;;;1.90;;
21281;SDS011;10800;53.096;18.328;2023-05-10T15:48:42;5.37;;;2.20;;
21281;SDS011;10800;53.096;18.328;2023-05-10T15:59:00;3.00;;;1.80;;
21281;SDS011;10800;53.096;18.328;2023-05-10T16:04:07;8.97;;;2.17;;
21281;SDS011;10800;53.096;18.328;2023-05-10T16:09:13;1.83;;;1.27;;
21281;SDS011;10800;53.096;18.328;2023-05-10T16:14:19;5.90;;;2.27;;
21281;SDS011;10800;53.096;18.328;2023-05-10T16:19:27;1.93;;;1.40;;
21281;SDS011;10800;53.096;18.328;2023-05-10T16:24:35;6.90;;;2.00;;
21281;SDS011;10800;53.096;18.328;2023-05-10T16:29:41;7.20;;;1.43;;
21281;SDS011;10800;53.096;18.328;2023-05-10T16:34:46;6.33;;;1.80;;
21281;SDS011;10800;53.096;18.328;2023-05-10T16:39:54;1.47;;;1.30;;
21281;SDS011;10800;53.096;18.328;2023-05-10T16:45:00;2.87;;;1.70;;
21281;SDS011;10800;53.096;18.328;2023-05-10T16:50:08;2.43;;;2.03;;
21281;SDS011;10800;53.096;18.328;2023-05-10T16:55:15;4.77;;;1.50;;
21281;SDS011;10800;53.096;18.328;2023-05-10T17:00:27;3.90;;;1.37;;
21281;SDS011;10800;53.096;18.328;2023-05-10T17:05:33;4.07;;;1.43;;
21281;SDS011;10800;53.096;18.328;2023-05-10T17:10:39;5.10;;;2.10;;
21281;SDS011;10800;53.096;18.328;2023-05-10T17:15:47;3.23;;;1.93;;
21281;SDS011;10800;53.096;18.328;2023-05-10T17:20:53;6.50;;;1.70;;
21281;SDS011;10800;53.096;18.328;2023-05-10T17:25:59;2.23;;;1.40;;
21281;SDS011;10800;53.096;18.328;2023-05-10T17:31:29;4.40;;;1.80;;
21281;SDS011;10800;53.096;18.328;2023-05-10T17:36:35;2.27;;;1.30;;
21281;SDS011;10800;53.096;18.328;2023-05-10T17:41:48;2.63;;;1.60;;
21281;SDS011;10800;53.096;18.328;2023-05-10T17:46:53;3.33;;;1.80;;
21281;SDS011;10800;53.096;18.328;2023-05-10T17:51:59;4.40;;;1.97;;
21281;SDS011;10800;53.096;18.328;2023-05-10T17:57:26;3.73;;;2.30;;
21281;SDS011;10800;53.096;18.328;2023-05-10T18:02:37;18.50;;;4.83;;
21281;SDS011;10800;53.096;18.328;2023-05-10T18:07:43;10.67;;;5.40;;
21281;SDS011;10800;53.096;18.328;2023-05-10T18:12:48;12.30;;;3.63;;
21281;SDS011;10800;53.096;18.328;2023-05-10T18:17:54;8.53;;;2.90;;
21281;SDS011;10800;53.096;18.328;2023-05-10T18:22:59;4.13;;;1.97;;
21281;SDS011;10800;53.096;18.328;2023-05-10T18:28:05;5.77;;;2.67;;
21281;SDS011;10800;53.096;18.328;2023-05-10T18:33:11;9.40;;;2.47;;
21281;SDS011;10800;53.096;18.328;2023-05-10T18:38:17;3.90;;;1.77;;
21281;SDS011;10800;53.096;18.328;2023-05-10T18:48:40;10.90;;;3.67;;
21281;SDS011;10800;53.096;18.328;2023-05-10T18:53:48;4.37;;;2.70;;
21281;SDS011;10800;53.096;18.328;2023-05-10T18:58:54;4.77;;;2.43;;
21281;SDS011;10800;53.096;18.328;2023-05-10T19:04:00;4.27;;;2.17;;
21281;SDS011;10800;53.096;18.328;2023-05-10T19:09:10;4.83;;;3.00;;
21281;SDS011;10800;53.096;18.328;2023-05-10T19:14:15;13.40;;;7.83;;
21281;SDS011;10800;53.096;18.328;2023-05-10T19:19:23;34.40;;;9.70;;
21281;SDS011;10800;53.096;18.328;2023-05-10T19:24:32;25.80;;;6.83;;
21281;SDS011;10800;53.096;18.328;2023-05-10T19:30:20;19.63;;;7.73;;
21281;SDS011;10800;53.096;18.328;2023-05-10T19:35:52;14.67;;;4.53;;
21281;SDS011;10800;53.096;18.328;2023-05-10T19:41:04;10.93;;;5.33;;
21281;SDS011;10800;53.096;18.328;2023-05-10T19:46:12;13.77;;;5.17;;
21281;SDS011;10800;53.096;18.328;2023-05-10T19:51:29;11.80;;;5.47;;
21281;SDS011;10800;53.096;18.328;2023-05-10T19:56:35;7.37;;;2.83;;
21281;SDS011;10800;53.096;18.328;2023-05-10T20:01:46;12.83;;;2.83;;
21281;SDS011;10800;53.096;18.328;2023-05-10T20:06:51;7.60;;;2.70;;
21281;SDS011;10800;53.096;18.328;2023-05-10T20:11:57;6.40;;;3.20;;
21281;SDS011;10800;53.096;18.328;2023-05-10T20:17:05;6.17;;;2.20;;
21281;SDS011;10800;53.096;18.328;2023-05-10T20:22:18;2.53;;;1.90;;
21281;SDS011;10800;53.096;18.328;2023-05-10T20:27:38;2.43;;;1.90;;
21281;SDS011;10800;53.096;18.328;2023-05-10T20:32:43;4.67;;;1.90;;
21281;SDS011;10800;53.096;18.328;2023-05-10T20:38:14;4.43;;;2.27;;
21281;SDS011;10800;53.096;18.328;2023-05-10T20:43:29;9.67;;;3.77;;
21281;SDS011;10800;53.096;18.328;2023-05-10T20:48:58;3.30;;;1.90;;
21281;SDS011;10800;53.096;18.328;2023-05-10T20:54:09;4.20;;;2.13;;
21281;SDS011;10800;53.096;18.328;2023-05-10T20:59:17;4.97;;;2.23;;
21281;SDS011;10800;53.096;18.328;2023-05-10T21:04:23;2.63;;;2.17;;
21281;SDS011;10800;53.096;18.328;2023-05-10T21:09:29;9.37;;;2.90;;
21281;SDS011;10800;53.096;18.328;2023-05-10T21:14:34;4.33;;;2.03;;
21281;SDS011;10800;53.096;18.328;2023-05-10T21:19:39;4.10;;;1.83;;
21281;SDS011;10800;53.096;18.328;2023-05-10T21:24:46;4.30;;;1.53;;
21281;SDS011;10800;53.096;18.328;2023-05-10T21:29:51;4.80;;;2.10;;
21281;SDS011;10800;53.096;18.328;2023-05-10T21:34:57;1.53;;;1.37;;
21281;SDS011;10800;53.096;18.328;2023-05-10T21:40:04;6.53;;;1.87;;
21281;SDS011;10800;53.096;18.328;2023-05-10T21:45:16;4.70;;;2.00;;
21281;SDS011;10800;53.096;18.328;2023-05-10T21:50:25;4.90;;;2.20;;
21281;SDS011;10800;53.096;18.328;2023-05-10T21:55:33;7.83;;;1.93;;
21281;SDS011;10800;53.096;18.328;2023-05-10T22:00:41;2.93;;;1.77;;
21281;SDS011;10800;53.096;18.328;2023-05-10T22:05:50;5.57;;;2.37;;
21281;SDS011;10800;53.096;18.328;2023-05-10T22:10:57;6.90;;;2.07;;
21281;SDS011;10800;53.096;18.328;2023-05-10T22:16:02;3.37;;;1.97;;
21281;SDS011;10800;53.096;18.328;2023-05-10T22:21:11;6.07;;;1.40;;
21281;SDS011;10800;53.096;18.328;2023-05-10T22:26:24;11.57;;;1.90;;
21281;SDS011;10800;53.096;18.328;2023-05-10T22:31:29;2.40;;;2.13;;
21281;SDS011;10800;53.096;18.328;2023-05-10T22:36:35;3.97;;;1.67;;
21281;SDS011;10800;53.096;18.328;2023-05-10T22:41:40;5.40;;;2.30;;
21281;SDS011;10800;53.096;18.328;2023-05-10T22:46:45;2.30;;;1.87;;
21281;SDS011;10800;53.096;18.328;2023-05-10T22:51:51;6.60;;;2.33;;
21281;SDS011;10800;53.096;18.328;2023-05-10T22:56:57;4.17;;;2.03;;
21281;SDS011;10800;53.096;18.328;2023-05-10T23:02:03;1.77;;;1.53;;
21281;SDS011;10800;53.096;18.328;2023-05-10T23:07:13;6.30;;;2.90;;
21281;SDS011;10800;53.096;18.328;2023-05-10T23:12:25;4.67;;;2.37;;
21281;SDS011;10800;53.096;18.328;2023-05-10T23:17:34;3.33;;;1.77;;
21281;SDS011;10800;53.096;18.328;2023-05-10T23:22:40;2.67;;;1.60;;
21281;SDS011;10800;53.096;18.328;2023-05-10T23:27:50;4.63;;;1.53;;
21281;SDS011;10800;53.096;18.328;2023-05-10T23:33:03;1.13;;;1.03;;
21281;SDS011;10800;53.096;18.328;2023-05-10T23:38:10;3.20;;;1.83;;
21281;SDS011;10800;53.096;18.328;2023-05-10T23:43:18;2.63;;;1.67;;
21281;SDS011;10800;53.096;18.328;2023-05-10T23:48:26;3.60;;;1.67;;
21281;SDS011;10800;53.096;18.328;2023-05-10T23:53:34;3.43;;;1.60;;
21281;SDS011;10800;53.096;18.328;2023-05-10T23:58:44;5.27;;;1.57;;
